createdAt,value
2019-02-15T00:01:23.135Z,10.10
2019-02-15T00:03:53.479Z,9.90
2019-02-15T00:06:23.779Z,11.25
2019-02-15T00:08:55.404Z,9.88
2019-02-15T00:11:25.220Z,10.03
2019-02-15T00:13:55.367Z,9.70
2019-02-15T00:16:27.359Z,10.08
2019-02-15T00:19:14.195Z,10.95
2019-02-15T00:21:50.555Z,9.98
2019-02-15T00:24:20.654Z,9.57
2019-02-15T00:26:50.487Z,10.95
2019-02-15T00:29:20.342Z,10.00
2019-02-15T00:31:51.199Z,9.98
2019-02-15T00:34:20.893Z,9.85
2019-02-15T00:36:50.550Z,8.40
2019-02-15T00:39:21.590Z,11.38
2019-02-15T00:41:51.159Z,9.03
2019-02-15T00:44:21.039Z,10.68
2019-02-15T00:47:09.111Z,10.75
2019-02-15T00:49:44.676Z,10.60
2019-02-15T00:52:39.314Z,9.43
2019-02-15T00:55:33.690Z,8.63
2019-02-15T00:58:24.027Z,11.22
2019-02-15T01:01:11.438Z,9.65
2019-02-15T01:03:59.859Z,10.90
2019-02-15T01:06:48.554Z,11.05
2019-02-15T01:09:43.340Z,9.88
2019-02-15T01:12:22.606Z,9.83
2019-02-15T01:14:52.263Z,10.15
2019-02-15T01:17:24.826Z,10.25
2019-02-15T01:19:54.520Z,9.83
2019-02-15T01:22:26.240Z,11.15
2019-02-15T01:24:55.851Z,9.68
2019-02-15T01:27:44.555Z,9.90
2019-02-15T01:30:45.122Z,10.08
2019-02-15T01:33:33.904Z,9.20
2019-02-15T01:36:40.507Z,11.60
2019-02-15T01:39:22.819Z,9.50
2019-02-15T01:42:26.683Z,9.38
2019-02-15T01:45:14.092Z,9.75
2019-02-15T01:47:46.891Z,10.98
2019-02-15T01:50:16.476Z,9.67
2019-02-15T01:52:47.953Z,10.67
2019-02-15T01:55:17.725Z,9.83
2019-02-15T01:57:47.363Z,10.35
2019-02-15T02:00:18.755Z,10.00
2019-02-15T02:02:49.243Z,11.22
2019-02-15T02:05:18.933Z,9.83
2019-02-15T02:07:48.803Z,9.50
2019-02-15T02:10:20.691Z,10.30
2019-02-15T02:12:51.525Z,11.63
2019-02-15T02:15:22.150Z,9.00
2019-02-15T02:17:51.915Z,10.78
2019-02-15T02:20:23.148Z,9.88
2019-02-15T02:22:53.375Z,9.80
2019-02-15T02:25:26.319Z,10.43
2019-02-15T02:27:56.996Z,10.28
2019-02-15T02:30:26.641Z,10.00
2019-02-15T02:32:56.391Z,9.83
2019-02-15T02:35:26.020Z,10.18
2019-02-15T02:37:56.774Z,9.33
2019-02-15T02:40:26.727Z,10.63
2019-02-15T02:42:56.655Z,10.23
2019-02-15T02:45:27.632Z,9.28
2019-02-15T02:47:57.320Z,10.43
2019-02-15T02:50:27.427Z,10.33
2019-02-15T02:52:58.275Z,9.50
2019-02-15T02:55:28.255Z,10.40
2019-02-15T02:57:58.148Z,10.78
2019-02-15T03:00:33.512Z,10.10
2019-02-15T03:03:01.123Z,11.15
2019-02-15T03:05:31.090Z,9.48
2019-02-15T03:08:01.901Z,9.95
2019-02-15T03:10:31.963Z,9.78
2019-02-15T03:13:01.696Z,9.83
2019-02-15T03:15:34.016Z,11.40
2019-02-15T03:18:04.619Z,9.73
2019-02-15T03:20:35.951Z,9.87
2019-02-15T03:23:07.229Z,10.75
2019-02-15T03:25:37.050Z,10.30
2019-02-15T03:28:09.071Z,10.03
2019-02-15T03:30:39.688Z,9.30
2019-02-15T03:33:09.788Z,10.88
2019-02-15T03:35:53.496Z,10.47
2019-02-15T03:38:45.371Z,10.95
2019-02-15T03:41:30.816Z,12.05
2019-02-15T03:44:00.655Z,9.88
2019-02-15T03:46:30.443Z,10.05
2019-02-15T03:49:00.132Z,10.27
2019-02-15T03:51:29.815Z,9.63
2019-02-15T03:53:59.577Z,10.80
2019-02-15T03:56:31.856Z,10.40
2019-02-15T03:59:02.775Z,10.05
2019-02-15T04:01:34.213Z,10.38
2019-02-15T04:04:05.290Z,10.63
2019-02-15T04:06:35.909Z,9.43
2019-02-15T04:09:06.571Z,9.63
2019-02-15T04:11:36.313Z,9.65
2019-02-15T04:14:06.142Z,10.98
2019-02-15T04:16:36.390Z,10.87
2019-02-15T04:19:06.039Z,10.78
2019-02-15T04:21:35.665Z,10.47
2019-02-15T04:24:05.350Z,10.60
2019-02-15T04:26:34.953Z,10.03
2019-02-15T04:29:05.673Z,10.10
2019-02-15T04:31:38.823Z,11.88
2019-02-15T04:34:08.525Z,9.65
2019-02-15T04:36:41.469Z,11.55
2019-02-15T04:39:11.169Z,12.05
2019-02-15T04:41:41.652Z,10.57
2019-02-15T04:44:11.408Z,10.97
2019-02-15T04:46:41.248Z,9.90
2019-02-15T04:49:11.169Z,11.50
2019-02-15T04:51:41.036Z,9.73
2019-02-15T04:54:10.761Z,9.95
2019-02-15T04:56:40.544Z,10.65
2019-02-15T04:59:13.922Z,11.22
2019-02-15T05:01:45.004Z,10.20
2019-02-15T05:04:14.859Z,12.30
2019-02-15T05:06:45.546Z,10.35
2019-02-15T05:09:16.915Z,11.30
2019-02-15T05:11:47.524Z,11.68
2019-02-15T05:14:18.382Z,12.05
2019-02-15T05:16:49.682Z,10.20
2019-02-15T05:19:19.247Z,11.25
2019-02-15T05:21:48.840Z,9.83
2019-02-15T05:24:18.491Z,8.77
2019-02-15T05:26:48.274Z,12.05
2019-02-15T05:29:18.103Z,10.40
2019-02-15T05:31:50.160Z,11.80
2019-02-15T05:34:19.959Z,10.68
2019-02-15T05:36:49.632Z,11.10
2019-02-15T05:39:19.655Z,10.90
2019-02-15T05:41:49.415Z,9.98
2019-02-15T05:44:19.063Z,11.12
2019-02-15T05:46:48.783Z,9.85
2019-02-15T05:49:18.566Z,11.50
2019-02-15T05:51:49.032Z,12.00
2019-02-15T05:54:19.133Z,10.57
2019-02-15T05:56:49.035Z,11.68
2019-02-15T05:59:18.772Z,11.17
2019-02-15T06:01:49.436Z,10.23
2019-02-15T06:04:20.309Z,11.33
2019-02-15T06:06:50.131Z,10.25
2019-02-15T06:09:21.262Z,9.55
2019-02-15T06:11:51.080Z,11.05
2019-02-15T06:14:20.784Z,11.25
2019-02-15T06:16:50.585Z,10.32
2019-02-15T06:19:21.642Z,11.88
2019-02-15T06:21:51.321Z,11.50
2019-02-15T06:24:23.277Z,10.70
2019-02-15T06:26:54.683Z,11.35
2019-02-15T06:29:27.679Z,11.30
2019-02-15T06:31:57.440Z,11.60
2019-02-15T06:34:27.128Z,11.15
2019-02-15T06:36:57.728Z,11.10
2019-02-15T06:39:28.619Z,10.40
2019-02-15T06:41:58.197Z,11.33
2019-02-15T06:44:27.875Z,9.35
2019-02-15T06:46:57.671Z,10.65
2019-02-15T06:49:27.500Z,9.90
2019-02-15T06:51:57.271Z,12.03
2019-02-15T06:54:27.188Z,12.33
2019-02-15T06:56:58.691Z,10.95
2019-02-15T06:59:48.051Z,11.70
2019-02-15T07:02:40.523Z,11.50
2019-02-15T07:05:25.787Z,11.15
2019-02-15T07:07:56.078Z,10.03
2019-02-15T07:10:26.799Z,11.50
2019-02-15T07:12:58.342Z,12.07
2019-02-15T07:15:33.874Z,12.20
2019-02-15T07:17:59.777Z,11.43
2019-02-15T07:20:29.413Z,10.50
2019-02-15T07:22:59.180Z,10.37
2019-02-15T07:25:29.443Z,11.22
2019-02-15T07:28:00.127Z,10.77
2019-02-15T07:30:31.513Z,11.03
2019-02-15T07:33:01.426Z,12.07
2019-02-15T07:35:31.291Z,11.10
2019-02-15T07:38:02.799Z,10.07
2019-02-15T07:40:32.640Z,11.30
2019-02-15T07:43:02.335Z,11.05
2019-02-15T07:45:33.006Z,10.70
2019-02-15T07:48:02.625Z,10.78
2019-02-15T07:50:33.585Z,11.22
2019-02-15T07:53:04.623Z,9.98
2019-02-15T07:55:34.442Z,11.93
2019-02-15T07:58:04.127Z,10.90
2019-02-15T08:00:35.187Z,10.65
2019-02-15T08:03:04.787Z,10.47
2019-02-15T08:05:34.476Z,12.37
2019-02-15T08:08:05.855Z,12.03
2019-02-15T08:10:35.427Z,12.18
2019-02-15T08:13:05.266Z,10.30
2019-02-15T08:15:37.889Z,11.95
2019-02-15T08:18:08.623Z,10.95
2019-02-15T08:20:38.460Z,11.13
2019-02-15T08:23:09.090Z,10.98
2019-02-15T08:25:38.707Z,10.98
2019-02-15T08:28:08.349Z,13.40
2019-02-15T08:30:38.200Z,12.33
2019-02-15T08:33:08.986Z,11.57
2019-02-15T08:35:38.672Z,11.95
2019-02-15T08:38:08.417Z,10.25
2019-02-15T08:40:38.028Z,12.37
2019-02-15T08:43:07.845Z,11.48
2019-02-15T08:45:37.760Z,10.88
2019-02-15T08:48:07.380Z,11.60
2019-02-15T08:50:37.123Z,11.15
2019-02-15T08:53:07.716Z,11.43
2019-02-15T08:55:39.229Z,11.55
2019-02-15T08:58:09.139Z,10.75
2019-02-15T09:00:39.855Z,10.67
2019-02-15T09:03:10.375Z,11.85
2019-02-15T09:05:40.099Z,12.00
2019-02-15T09:08:09.977Z,13.72
2019-02-15T09:10:41.091Z,11.70
2019-02-15T09:13:10.784Z,11.43
2019-02-15T09:15:40.992Z,10.80
2019-02-15T09:18:11.222Z,10.93
2019-02-15T09:20:41.076Z,11.65
2019-02-15T09:23:12.266Z,11.78
2019-02-15T09:25:42.023Z,12.33
2019-02-15T09:28:33.808Z,11.48
2019-02-15T09:31:03.368Z,11.48
2019-02-15T09:33:33.189Z,10.53
2019-02-15T09:36:04.599Z,10.10
2019-02-15T09:38:34.821Z,10.05
2019-02-15T09:41:04.641Z,12.28
2019-02-15T09:43:34.295Z,11.08
2019-02-15T09:46:03.867Z,10.85
2019-02-15T09:48:35.556Z,11.78
2019-02-15T09:51:05.174Z,11.35
2019-02-15T09:53:37.375Z,10.55
2019-02-15T09:56:06.990Z,10.78
2019-02-15T09:58:37.783Z,10.72
2019-02-15T10:01:07.512Z,10.45
2019-02-15T10:03:37.165Z,9.67
2019-02-15T10:06:06.938Z,10.30
2019-02-15T10:08:36.623Z,10.90
2019-02-15T10:11:09.823Z,12.15
2019-02-15T10:13:42.455Z,11.43
2019-02-15T10:16:12.707Z,10.13
2019-02-15T10:18:42.442Z,9.77
2019-02-15T10:21:12.502Z,10.00
2019-02-15T10:23:44.142Z,9.95
2019-02-15T10:26:13.867Z,10.15
2019-02-15T10:28:43.507Z,9.47
2019-02-15T10:31:17.053Z,10.43
2019-02-15T10:33:47.714Z,10.77
2019-02-15T10:36:18.909Z,9.85
2019-02-15T10:38:49.899Z,9.83
2019-02-15T10:41:19.460Z,10.58
2019-02-15T10:43:49.090Z,9.45
2019-02-15T10:46:18.904Z,9.38
2019-02-15T10:48:48.763Z,10.35
2019-02-15T10:51:18.432Z,10.10
2019-02-15T10:53:48.085Z,9.53
2019-02-15T10:56:17.676Z,11.33
2019-02-15T10:58:47.390Z,10.78
2019-02-15T11:01:18.599Z,9.40
2019-02-15T11:03:49.252Z,9.88
2019-02-15T11:06:18.967Z,8.70
2019-02-15T11:08:48.624Z,9.45
2019-02-15T11:11:20.325Z,9.98
2019-02-15T11:13:50.128Z,9.43
2019-02-15T11:16:19.796Z,9.75
2019-02-15T11:18:51.138Z,9.88
2019-02-15T11:21:20.787Z,9.48
2019-02-15T11:23:51.543Z,8.58
2019-02-15T11:26:24.711Z,9.50
2019-02-15T11:28:54.961Z,8.90
2019-02-15T11:31:24.780Z,8.37
2019-02-15T11:33:54.618Z,9.40
2019-02-15T11:36:24.277Z,9.00
2019-02-15T11:38:53.872Z,7.97
2019-02-15T11:41:23.729Z,9.05
2019-02-15T11:43:54.014Z,8.97
2019-02-15T11:46:25.454Z,8.65
2019-02-15T11:48:55.072Z,8.08
2019-02-15T11:51:24.923Z,9.93
2019-02-15T11:53:58.636Z,9.23
2019-02-15T11:56:29.559Z,9.57
2019-02-15T11:58:59.116Z,9.55
2019-02-15T12:01:30.182Z,8.65
2019-02-15T12:04:00.971Z,8.85
2019-02-15T12:06:30.903Z,8.47
2019-02-15T12:09:00.764Z,9.00
2019-02-15T12:11:30.542Z,8.08
2019-02-15T12:14:01.840Z,7.47
2019-02-15T12:16:33.419Z,9.05
2019-02-15T12:19:04.877Z,8.95
2019-02-15T12:21:34.480Z,8.45
2019-02-15T12:24:05.174Z,8.50
2019-02-15T12:26:34.853Z,8.45
2019-02-15T12:29:06.400Z,8.38
2019-02-15T12:31:36.124Z,7.67
2019-02-15T12:34:07.313Z,8.63
2019-02-15T12:36:37.275Z,8.38
2019-02-15T12:39:07.111Z,8.13
2019-02-15T12:41:37.244Z,8.30
2019-02-15T12:44:09.323Z,8.63
2019-02-15T12:46:40.704Z,8.03
2019-02-15T12:49:10.405Z,6.95
2019-02-15T12:51:42.423Z,8.13
2019-02-15T12:54:13.046Z,8.58
2019-02-15T12:56:43.076Z,6.87
2019-02-15T12:59:12.701Z,8.15
2019-02-15T13:01:42.456Z,7.78
2019-02-15T13:04:12.027Z,6.95
2019-02-15T13:06:43.547Z,7.47
2019-02-15T13:09:13.395Z,7.87
2019-02-15T13:11:43.063Z,8.15
2019-02-15T13:14:14.714Z,8.83
2019-02-15T13:16:44.375Z,7.55
2019-02-15T13:19:14.211Z,7.92
2019-02-15T13:21:44.054Z,7.12
2019-02-15T13:24:13.976Z,8.30
2019-02-15T13:26:44.804Z,8.28
2019-02-15T13:29:14.836Z,7.55
2019-02-15T13:31:46.309Z,6.95
2019-02-15T13:34:15.936Z,7.67
2019-02-15T13:36:46.223Z,6.80
2019-02-15T13:39:15.951Z,7.95
2019-02-15T13:41:45.476Z,7.70
2019-02-15T13:44:15.137Z,7.45
2019-02-15T13:46:46.897Z,6.85
2019-02-15T13:49:17.877Z,8.23
2019-02-15T13:51:48.722Z,7.90
2019-02-15T13:54:20.604Z,7.42
2019-02-15T13:56:51.987Z,7.25
2019-02-15T13:59:21.667Z,7.92
2019-02-15T14:01:51.242Z,7.37
2019-02-15T14:04:20.991Z,7.53
2019-02-15T14:06:58.166Z,6.45
2019-02-15T14:09:29.157Z,6.97
2019-02-15T14:11:59.887Z,7.67
2019-02-15T14:14:29.581Z,8.25
2019-02-15T14:17:02.131Z,7.75
2019-02-15T14:19:31.935Z,6.35
2019-02-15T14:22:03.321Z,7.62
2019-02-15T14:24:35.134Z,8.17
2019-02-15T14:27:05.886Z,7.67
2019-02-15T14:29:38.055Z,7.78
2019-02-15T14:32:08.750Z,7.53
2019-02-15T14:34:42.906Z,7.15
2019-02-15T14:37:12.944Z,7.67
2019-02-15T14:39:42.726Z,7.90
2019-02-15T14:42:12.387Z,7.15
2019-02-15T14:44:42.135Z,6.40
2019-02-15T14:47:13.295Z,7.83
2019-02-15T14:49:43.859Z,6.28
2019-02-15T14:52:15.741Z,7.37
2019-02-15T14:54:45.401Z,7.65
2019-02-15T14:57:15.495Z,7.33
2019-02-15T14:59:45.193Z,7.10
2019-02-15T15:02:15.127Z,7.50
2019-02-15T15:04:46.331Z,6.45
2019-02-15T15:07:17.019Z,6.53
2019-02-15T15:09:49.122Z,6.87
2019-02-15T15:12:20.351Z,6.58
2019-02-15T15:14:50.992Z,6.40
2019-02-15T15:17:20.563Z,6.53
2019-02-15T15:19:50.347Z,6.62
2019-02-15T15:22:21.923Z,6.97
2019-02-15T15:24:51.614Z,7.47
2019-02-15T15:27:21.462Z,5.53
2019-02-15T15:29:51.084Z,5.80
2019-02-15T15:32:20.748Z,6.67
2019-02-15T15:34:50.386Z,5.80
2019-02-15T15:37:21.200Z,6.10
2019-02-15T15:39:50.849Z,7.25
2019-02-15T15:42:21.520Z,6.12
2019-02-15T15:44:51.308Z,5.75
2019-02-15T15:47:21.196Z,6.47
2019-02-15T15:49:52.283Z,6.37
2019-02-15T15:52:23.888Z,6.10
2019-02-15T15:54:53.487Z,6.87
2019-02-15T15:57:23.157Z,7.83
2019-02-15T15:59:53.254Z,5.97
2019-02-15T16:02:22.999Z,6.28
2019-02-15T16:04:52.812Z,5.97
2019-02-15T16:07:22.659Z,7.10
2019-02-15T16:09:52.699Z,6.47
2019-02-15T16:12:22.629Z,7.30
2019-02-15T16:14:54.139Z,6.77
2019-02-15T16:17:29.719Z,6.05
2019-02-15T16:20:01.159Z,7.25
2019-02-15T16:22:30.760Z,7.00
2019-02-15T16:25:00.389Z,6.37
2019-02-15T16:27:30.532Z,6.33
2019-02-15T16:30:00.764Z,6.92
2019-02-15T16:32:30.527Z,6.42
2019-02-15T16:35:00.421Z,6.50
2019-02-15T16:37:30.161Z,6.42
2019-02-15T16:40:00.358Z,7.12
2019-02-15T16:42:30.100Z,6.53
2019-02-15T16:45:00.002Z,5.33
2019-02-15T16:47:30.049Z,6.28
2019-02-15T16:50:01.187Z,6.35
2019-02-15T16:52:32.539Z,5.87
2019-02-15T16:55:11.964Z,6.80
2019-02-15T16:57:33.721Z,6.03
2019-02-15T17:00:04.930Z,6.60
2019-02-15T17:02:34.895Z,5.90
2019-02-15T17:05:04.658Z,7.23
2019-02-15T17:07:34.371Z,5.97
2019-02-15T17:10:04.006Z,6.12
2019-02-15T17:12:34.723Z,5.58
2019-02-15T17:15:04.705Z,7.70
2019-02-15T17:17:35.738Z,6.45
2019-02-15T17:20:05.478Z,7.15
2019-02-15T17:22:35.363Z,6.30
2019-02-15T17:25:06.286Z,7.00
2019-02-15T17:27:36.017Z,6.15
2019-02-15T17:30:06.164Z,7.12
2019-02-15T17:32:35.942Z,6.08
2019-02-15T17:35:05.999Z,7.27
2019-02-15T17:37:36.417Z,6.22
2019-02-15T17:40:06.575Z,7.15
2019-02-15T17:42:37.341Z,6.62
2019-02-15T17:45:07.493Z,6.25
2019-02-15T17:47:37.411Z,5.45
2019-02-15T17:50:08.753Z,6.50
2019-02-15T17:52:38.578Z,8.68
2019-02-15T17:55:08.579Z,9.28
2019-02-15T17:57:39.366Z,8.00
2019-02-15T18:00:09.527Z,7.37
2019-02-15T18:02:39.139Z,6.85
2019-02-15T18:05:16.724Z,6.92
2019-02-15T18:07:47.729Z,5.83
2019-02-15T18:10:19.219Z,6.53
2019-02-15T18:12:50.024Z,6.20
2019-02-15T18:15:21.661Z,6.33
2019-02-15T18:17:52.507Z,6.53
2019-02-15T18:20:23.034Z,6.90
2019-02-15T18:22:53.710Z,5.75
2019-02-15T18:25:24.550Z,6.62
2019-02-15T18:27:54.865Z,7.70
2019-02-15T18:30:25.886Z,7.60
2019-02-15T18:32:57.300Z,6.40
2019-02-15T18:35:28.615Z,5.95
2019-02-15T18:38:01.715Z,5.65
2019-02-15T18:40:33.251Z,7.58
2019-02-15T18:43:02.875Z,7.17
2019-02-15T18:45:32.698Z,7.03
2019-02-15T18:48:02.467Z,6.08
2019-02-15T18:50:33.606Z,7.30
2019-02-15T18:53:04.944Z,7.08
2019-02-15T18:55:34.631Z,6.40
2019-02-15T18:58:04.390Z,6.08
2019-02-15T19:00:34.447Z,6.47
2019-02-15T19:03:05.029Z,7.58
2019-02-15T19:05:35.598Z,6.42
2019-02-15T19:08:05.699Z,7.40
2019-02-15T19:10:35.379Z,7.90
2019-02-15T19:13:06.732Z,6.35
2019-02-15T19:15:39.093Z,7.03
2019-02-15T19:18:08.733Z,5.70
2019-02-15T19:20:39.365Z,7.33
2019-02-15T19:23:10.076Z,6.85
2019-02-15T19:25:39.910Z,6.67
2019-02-15T19:28:10.214Z,7.65
2019-02-15T19:30:40.632Z,6.90
2019-02-15T19:33:10.377Z,7.37
2019-02-15T19:35:40.183Z,6.53
2019-02-15T19:38:09.896Z,7.55
2019-02-15T19:40:39.668Z,7.20
2019-02-15T19:43:09.439Z,7.00
2019-02-15T19:45:39.059Z,7.17
2019-02-15T19:48:08.925Z,6.37
2019-02-15T19:50:40.479Z,6.67
2019-02-15T19:53:10.716Z,7.03
2019-02-15T19:55:41.568Z,7.22
2019-02-15T19:58:12.702Z,6.90
2019-02-15T20:00:42.397Z,7.30
2019-02-15T20:03:13.853Z,8.30
2019-02-15T20:05:44.664Z,7.12
2019-02-15T20:08:14.293Z,7.28
2019-02-15T20:10:43.955Z,7.15
2019-02-15T20:13:15.421Z,7.22
2019-02-15T20:15:46.281Z,6.92
2019-02-15T20:18:16.436Z,6.15
2019-02-15T20:20:49.259Z,6.83
2019-02-15T20:23:19.175Z,6.95
2019-02-15T20:25:48.882Z,6.30
2019-02-15T20:28:19.244Z,6.97
2019-02-15T20:30:49.000Z,7.00
2019-02-15T20:33:20.273Z,6.85
2019-02-15T20:35:50.333Z,6.22
2019-02-15T20:38:21.870Z,6.55
2019-02-15T20:40:51.545Z,6.80
2019-02-15T20:43:22.487Z,6.58
2019-02-15T20:45:52.566Z,7.03
2019-02-15T20:48:23.359Z,7.58
2019-02-15T20:50:54.873Z,6.58
2019-02-15T20:53:24.592Z,6.95
2019-02-15T20:55:54.356Z,7.12
2019-02-15T20:58:27.090Z,6.83
2019-02-15T21:00:57.259Z,7.20
2019-02-15T21:03:27.054Z,7.78
2019-02-15T21:05:56.856Z,7.60
2019-02-15T21:08:26.653Z,6.70
2019-02-15T21:10:57.883Z,7.03
2019-02-15T21:13:27.448Z,7.45
2019-02-15T21:15:57.144Z,6.97
2019-02-15T21:18:26.757Z,6.80
2019-02-15T21:20:56.607Z,7.40
2019-02-15T21:23:28.000Z,6.37
2019-02-15T21:25:59.542Z,7.05
2019-02-15T21:28:30.671Z,7.05
2019-02-15T21:31:00.292Z,6.27
2019-02-15T21:33:31.791Z,6.87
2019-02-15T21:36:01.566Z,6.33
2019-02-15T21:38:33.600Z,6.07
2019-02-15T21:41:03.438Z,7.97
2019-02-15T21:43:35.131Z,6.97
2019-02-15T21:46:06.559Z,7.37
2019-02-15T21:48:36.578Z,7.03
2019-02-15T21:51:08.506Z,6.95
2019-02-15T21:53:39.288Z,6.97
2019-02-15T21:56:09.964Z,6.22
2019-02-15T21:58:39.629Z,7.53
2019-02-15T22:01:09.501Z,7.25
2019-02-15T22:03:39.200Z,6.92
2019-02-15T22:06:09.587Z,7.85
2019-02-15T22:08:39.181Z,7.25
2019-02-15T22:11:08.995Z,7.35
2019-02-15T22:13:38.730Z,7.78
2019-02-15T22:16:08.350Z,7.28
2019-02-15T22:18:38.066Z,8.60
2019-02-15T22:21:08.787Z,7.55
2019-02-15T22:23:38.474Z,8.48
2019-02-15T22:26:10.021Z,7.28
2019-02-15T22:28:39.650Z,6.50
2019-02-15T22:31:09.397Z,6.70
2019-02-15T22:33:39.168Z,7.30
2019-02-15T22:36:09.011Z,6.87
2019-02-15T22:38:39.255Z,7.55
2019-02-15T22:41:19.456Z,7.03
2019-02-15T22:43:50.597Z,9.60
2019-02-15T22:46:20.245Z,7.42
2019-02-15T22:48:49.871Z,7.80
2019-02-15T22:51:19.732Z,7.63
2019-02-15T22:53:49.432Z,8.35
2019-02-15T22:56:19.189Z,7.30
2019-02-15T22:58:50.155Z,7.62
2019-02-15T23:01:21.179Z,6.65
2019-02-15T23:03:51.877Z,7.80
2019-02-15T23:06:21.648Z,6.70
2019-02-15T23:08:51.415Z,6.50
2019-02-15T23:11:21.190Z,7.70
2019-02-15T23:13:52.390Z,7.97
2019-02-15T23:16:22.168Z,8.78
2019-02-15T23:18:52.127Z,8.83
2019-02-15T23:21:23.195Z,6.87
2019-02-15T23:23:52.829Z,7.13
2019-02-15T23:26:22.484Z,7.83
2019-02-15T23:28:53.224Z,6.63
2019-02-15T23:31:23.904Z,6.80
2019-02-15T23:33:53.891Z,6.72
2019-02-15T23:36:23.472Z,7.37
2019-02-15T23:38:55.103Z,7.97
2019-02-15T23:41:25.679Z,7.25
2019-02-15T23:43:55.532Z,7.55
2019-02-15T23:46:25.191Z,7.58
2019-02-15T23:48:55.841Z,8.75
2019-02-15T23:51:27.207Z,7.37
2019-02-15T23:53:56.936Z,6.15
2019-02-15T23:56:28.719Z,7.72
2019-02-15T23:59:00.123Z,8.15
